createdAt,value
2022-11-04T00:01:48.355Z,95218.41
2022-11-04T00:04:19.588Z,95213.72
2022-11-04T00:06:49.160Z,95220.34
2022-11-04T00:09:21.241Z,95222.44
2022-11-04T00:12:07.429Z,95206.75
2022-11-04T00:14:39.044Z,95208.88
2022-11-04T00:17:22.972Z,95217.88
2022-11-04T00:20:10.077Z,95207.66
2022-11-04T00:22:56.837Z,95221.25
2022-11-04T00:25:44.355Z,95215.97
2022-11-04T00:28:31.855Z,95220.50
2022-11-04T00:31:22.630Z,95213.13
2022-11-04T00:33:51.633Z,95170.97
2022-11-04T00:36:21.847Z,95215.25
2022-11-04T00:38:50.181Z,95208.91
2022-11-04T00:41:30.984Z,95146.59
2022-11-04T00:44:01.698Z,95202.59
2022-11-04T00:46:31.510Z,95161.94
2022-11-04T00:49:01.482Z,95208.63
2022-11-04T00:51:29.957Z,95188.13
2022-11-04T00:53:59.801Z,95188.75
2022-11-04T00:56:29.245Z,95192.03
2022-11-04T00:58:57.362Z,95179.69
2022-11-04T01:01:28.045Z,95182.09
2022-11-04T01:03:57.348Z,95186.03
2022-11-04T01:06:28.349Z,95188.75
2022-11-04T01:08:57.746Z,95180.75
2022-11-04T01:11:26.219Z,95162.25
2022-11-04T01:13:56.392Z,95145.19
2022-11-04T01:16:25.929Z,95173.38
2022-11-04T01:18:54.048Z,95178.94
2022-11-04T01:21:22.490Z,95164.34
2022-11-04T01:23:51.370Z,95173.38
2022-11-04T01:26:23.474Z,95165.56
2022-11-04T01:28:54.969Z,95165.34
2022-11-04T01:31:26.701Z,95149.88
2022-11-04T01:33:56.635Z,95154.34
2022-11-04T01:36:25.830Z,95158.69
2022-11-04T01:38:56.102Z,95151.34
2022-11-04T01:41:26.684Z,95154.63
2022-11-04T01:43:56.669Z,95172.47
2022-11-04T01:46:34.026Z,95157.16
2022-11-04T01:49:08.233Z,95161.19
2022-11-04T01:51:40.357Z,95155.19
2022-11-04T01:54:11.200Z,95165.41
2022-11-04T01:56:41.224Z,95160.56
2022-11-04T01:59:22.158Z,95154.22
2022-11-04T02:01:52.267Z,95143.38
2022-11-04T02:04:27.279Z,95150.88
2022-11-04T02:06:58.294Z,95151.44
2022-11-04T02:09:32.096Z,95135.94
2022-11-04T02:12:18.203Z,95137.91
2022-11-04T02:14:48.200Z,95141.53
2022-11-04T02:17:34.656Z,95141.41
2022-11-04T02:20:30.519Z,95129.50
2022-11-04T02:23:26.191Z,95131.94
2022-11-04T02:26:15.035Z,95137.06
2022-11-04T02:29:16.653Z,95146.97
2022-11-04T02:31:55.250Z,95102.66
2022-11-04T02:34:32.629Z,95136.94
2022-11-04T02:37:11.198Z,95128.81
2022-11-04T02:39:52.368Z,95131.34
2022-11-04T02:42:31.695Z,95114.47
2022-11-04T02:45:12.257Z,95084.16
2022-11-04T02:47:45.551Z,95129.34
2022-11-04T02:50:18.786Z,95122.13
2022-11-04T02:52:55.971Z,95125.16
2022-11-04T02:55:27.968Z,95119.13
2022-11-04T02:58:00.586Z,95126.31
2022-11-04T03:00:30.962Z,95118.53
2022-11-04T03:03:03.862Z,95091.06
2022-11-04T03:05:37.760Z,95076.03
2022-11-04T03:08:10.800Z,95138.06
2022-11-04T03:10:44.452Z,95119.97
2022-11-04T03:13:15.786Z,95119.34
2022-11-04T03:15:50.261Z,95131.53
2022-11-04T03:18:28.296Z,95099.94
2022-11-04T03:21:00.043Z,95134.25
2022-11-04T03:23:29.247Z,95120.22
2022-11-04T03:26:04.190Z,95121.91
2022-11-04T03:28:43.819Z,95120.41
2022-11-04T03:31:20.547Z,95129.06
2022-11-04T03:33:52.317Z,95129.06
2022-11-04T03:36:23.393Z,95123.44
2022-11-04T03:38:53.988Z,95124.81
2022-11-04T03:41:36.621Z,95125.06
2022-11-04T03:44:05.657Z,95127.19
2022-11-04T03:46:36.447Z,95138.63
2022-11-04T03:49:08.969Z,95083.28
2022-11-04T03:51:37.527Z,95130.78
2022-11-04T03:54:06.642Z,95128.81
2022-11-04T03:57:02.210Z,95126.56
2022-11-04T03:59:51.695Z,95129.97
2022-11-04T04:02:24.663Z,95122.28
2022-11-04T04:05:00.451Z,95126.31
2022-11-04T04:07:34.859Z,95119.34
2022-11-04T04:10:29.614Z,95125.19
2022-11-04T04:13:01.895Z,95069.59
2022-11-04T04:15:37.883Z,95120.03
2022-11-04T04:18:12.631Z,95128.56
2022-11-04T04:20:47.328Z,95133.19
2022-11-04T04:23:37.187Z,95121.28
2022-11-04T04:26:26.756Z,95127.78
2022-11-04T04:28:56.896Z,95120.50
2022-11-04T04:31:44.398Z,95127.41
2022-11-04T04:34:13.180Z,95087.84
2022-11-04T04:36:47.693Z,95110.69
2022-11-04T04:39:40.637Z,95126.34
2022-11-04T04:42:27.203Z,95126.13
2022-11-04T04:45:02.067Z,95123.66
2022-11-04T04:47:45.213Z,95125.06
2022-11-04T04:50:15.652Z,95110.09
2022-11-04T04:52:49.847Z,95122.72
2022-11-04T04:55:19.386Z,95125.06
2022-11-04T04:57:47.528Z,95120.44
2022-11-04T05:00:18.240Z,95128.97
2022-11-04T05:02:47.113Z,95111.59
2022-11-04T05:05:17.263Z,95121.09
2022-11-04T05:07:47.065Z,95120.25
2022-11-04T05:10:17.500Z,95119.28
2022-11-04T05:13:03.695Z,95127.25
2022-11-04T05:15:33.801Z,95132.66
2022-11-04T05:18:03.618Z,95084.56
2022-11-04T05:20:34.377Z,95128.91
2022-11-04T05:23:04.078Z,95131.44
2022-11-04T05:25:32.844Z,95130.03
2022-11-04T05:28:05.375Z,95137.03
2022-11-04T05:30:34.074Z,95128.63
2022-11-04T05:33:04.915Z,95152.75
2022-11-04T05:35:34.228Z,95141.47
2022-11-04T05:38:04.534Z,95153.28
2022-11-04T05:40:32.749Z,95144.22
2022-11-04T05:43:02.224Z,95147.63
2022-11-04T05:45:31.144Z,95161.59
2022-11-04T05:48:00.948Z,95095.25
2022-11-04T05:50:30.135Z,95164.47
2022-11-04T05:52:59.028Z,95161.44
2022-11-04T05:55:30.811Z,95159.13
2022-11-04T05:57:59.944Z,95164.34
2022-11-04T06:00:28.775Z,95166.03
2022-11-04T06:02:58.656Z,95168.72
2022-11-04T06:05:28.188Z,95163.03
2022-11-04T06:07:57.979Z,95177.50
2022-11-04T06:10:27.002Z,95165.06
2022-11-04T06:12:56.984Z,95172.75
2022-11-04T06:15:25.603Z,95166.69
2022-11-04T06:17:53.862Z,95162.66
2022-11-04T06:20:25.454Z,95177.91
2022-11-04T06:22:54.074Z,95170.84
2022-11-04T06:25:22.412Z,95169.28
2022-11-04T06:27:50.500Z,95172.50
2022-11-04T06:30:20.549Z,95174.00
2022-11-04T06:32:49.469Z,95162.53
2022-11-04T06:35:18.254Z,95167.28
2022-11-04T06:37:49.209Z,95165.63
2022-11-04T06:40:17.740Z,95164.75
2022-11-04T06:42:46.774Z,95158.94
2022-11-04T06:45:14.823Z,95171.31
2022-11-04T06:47:44.390Z,95167.75
2022-11-04T06:50:15.721Z,95174.09
2022-11-04T06:52:44.333Z,95170.53
2022-11-04T06:55:12.574Z,95173.56
2022-11-04T06:57:40.913Z,95163.34
2022-11-04T07:00:10.399Z,95169.97
2022-11-04T07:02:39.349Z,95153.75
2022-11-04T07:05:10.414Z,95154.19
2022-11-04T07:07:38.903Z,95161.31
2022-11-04T07:10:08.317Z,95152.91
2022-11-04T07:12:38.389Z,95156.50
2022-11-04T07:15:07.353Z,95162.25
2022-11-04T07:17:39.675Z,95152.63
2022-11-04T07:20:13.543Z,95150.19
2022-11-04T07:22:41.880Z,95114.69
2022-11-04T07:25:11.122Z,95146.59
2022-11-04T07:27:40.400Z,95134.81
2022-11-04T07:30:10.223Z,95123.78
2022-11-04T07:32:38.278Z,95124.19
2022-11-04T07:35:09.091Z,95109.97
2022-11-04T07:37:36.972Z,95128.50
2022-11-04T07:40:06.067Z,95119.38
2022-11-04T07:42:36.376Z,95126.88
2022-11-04T07:45:04.812Z,95111.28
2022-11-04T07:47:33.227Z,95108.44
2022-11-04T07:50:10.587Z,95111.50
2022-11-04T07:52:40.846Z,95106.88
2022-11-04T07:55:14.316Z,95106.88
2022-11-04T07:57:42.888Z,95115.69
2022-11-04T08:00:13.448Z,95111.50
2022-11-04T08:02:42.314Z,95111.75
2022-11-04T08:05:10.805Z,95104.13
2022-11-04T08:07:41.228Z,95099.09
2022-11-04T08:10:11.250Z,95105.56
2022-11-04T08:12:39.456Z,95072.88
2022-11-04T08:15:09.153Z,95093.84
2022-11-04T08:17:37.797Z,95076.13
2022-11-04T08:20:08.958Z,95082.50
2022-11-04T08:22:38.107Z,95081.75
2022-11-04T08:25:13.690Z,95082.31
2022-11-04T08:27:43.420Z,95069.94
2022-11-04T08:30:12.486Z,95072.00
2022-11-04T08:32:40.536Z,95051.88
2022-11-04T08:35:12.327Z,95069.84
2022-11-04T08:37:41.990Z,95061.88
2022-11-04T08:40:12.659Z,95033.78
2022-11-04T08:42:40.840Z,95060.38
2022-11-04T08:45:11.079Z,95064.47
2022-11-04T08:47:42.739Z,94977.66
2022-11-04T08:50:11.651Z,95050.81
2022-11-04T08:52:40.352Z,95062.19
2022-11-04T08:55:10.640Z,95059.38
2022-11-04T08:57:40.258Z,95048.00
2022-11-04T09:00:09.858Z,95047.41
2022-11-04T09:02:39.352Z,95032.97
2022-11-04T09:05:08.958Z,95036.03
2022-11-04T09:07:39.038Z,95043.63
2022-11-04T09:10:08.414Z,94993.78
2022-11-04T09:12:36.609Z,95040.47
2022-11-04T09:15:07.521Z,95031.38
2022-11-04T09:17:36.067Z,95028.19
2022-11-04T09:20:05.469Z,95014.66
2022-11-04T09:22:33.841Z,95010.34
2022-11-04T09:25:02.890Z,95009.97
2022-11-04T09:27:32.114Z,95005.66
2022-11-04T09:30:00.097Z,94997.47
2022-11-04T09:32:29.896Z,95011.75
2022-11-04T09:34:58.478Z,95007.25
2022-11-04T09:37:26.980Z,94989.81
2022-11-04T09:39:55.730Z,94988.66
2022-11-04T09:42:44.947Z,94991.22
2022-11-04T09:45:21.495Z,94985.19
2022-11-04T09:48:02.534Z,94974.03
2022-11-04T09:50:37.510Z,94964.47
2022-11-04T09:53:10.578Z,94971.75
2022-11-04T09:55:49.180Z,94963.19
2022-11-04T09:58:17.836Z,94964.75
2022-11-04T10:00:56.714Z,94962.28
2022-11-04T10:03:55.056Z,94955.38
2022-11-04T10:06:38.279Z,94916.84
2022-11-04T10:09:22.249Z,94938.91
2022-11-04T10:12:03.468Z,94873.97
2022-11-04T10:14:49.989Z,94921.50
2022-11-04T10:17:31.871Z,94922.34
2022-11-04T10:20:20.848Z,94915.66
2022-11-04T10:22:59.459Z,94877.00
2022-11-04T10:25:32.178Z,94917.59
2022-11-04T10:28:01.459Z,94895.50
2022-11-04T10:30:32.193Z,94891.03
2022-11-04T10:33:07.680Z,94896.50
2022-11-04T10:35:42.604Z,94892.53
2022-11-04T10:38:23.161Z,94886.81
2022-11-04T10:40:53.808Z,94878.28
2022-11-04T10:43:31.229Z,94865.84
2022-11-04T10:46:13.481Z,94861.69
2022-11-04T10:48:51.371Z,94851.25
2022-11-04T10:51:22.471Z,94856.47
2022-11-04T10:53:56.878Z,94849.28
2022-11-04T10:56:37.290Z,94848.75
2022-11-04T10:59:20.889Z,94840.00
2022-11-04T11:01:55.040Z,94825.31
2022-11-04T11:04:29.707Z,94818.53
2022-11-04T11:07:01.804Z,94823.25
2022-11-04T11:09:31.823Z,94807.53
2022-11-04T11:12:23.304Z,94802.97
2022-11-04T11:14:54.174Z,94787.47
2022-11-04T11:17:25.260Z,94800.66
2022-11-04T11:19:59.688Z,94789.53
2022-11-04T11:22:38.079Z,94793.00
2022-11-04T11:25:29.766Z,94782.72
2022-11-04T11:28:01.019Z,94783.75
2022-11-04T11:30:34.030Z,94779.97
2022-11-04T11:33:05.117Z,94773.16
2022-11-04T11:35:41.625Z,94763.06
2022-11-04T11:38:21.157Z,94724.66
2022-11-04T11:41:22.816Z,94750.13
2022-11-04T11:43:48.445Z,94740.75
2022-11-04T11:46:24.465Z,94742.84
2022-11-04T11:48:53.927Z,94747.75
2022-11-04T11:51:31.716Z,94717.06
2022-11-04T11:54:16.798Z,94720.31
2022-11-04T12:02:41.249Z,94715.97
2022-11-04T12:11:16.537Z,94698.44
2022-11-04T12:13:51.089Z,94712.31
2022-11-04T12:16:34.679Z,94709.78
2022-11-04T12:19:27.162Z,94700.03
2022-11-04T12:22:03.794Z,94705.25
2022-11-04T12:24:43.334Z,94698.25
2022-11-04T12:27:22.960Z,94681.09
2022-11-04T12:30:10.576Z,94704.47
2022-11-04T12:32:53.533Z,94704.94
2022-11-04T12:35:38.414Z,94705.16
2022-11-04T12:38:34.001Z,94702.50
2022-11-04T12:44:10.997Z,94664.28
2022-11-04T12:46:47.568Z,94701.47
2022-11-04T12:49:37.322Z,94695.63
2022-11-04T12:52:15.525Z,94685.34
2022-11-04T12:55:06.134Z,94673.91
2022-11-04T12:57:48.028Z,94679.41
2022-11-04T13:00:22.050Z,94646.84
2022-11-04T13:02:53.649Z,94676.84
2022-11-04T13:05:38.220Z,94675.28
2022-11-04T13:08:14.814Z,94673.63
2022-11-04T13:10:49.875Z,94662.22
2022-11-04T13:13:23.021Z,94675.94
2022-11-04T13:15:59.237Z,94678.69
2022-11-04T13:18:32.298Z,94658.63
2022-11-04T13:21:05.773Z,94661.31
2022-11-04T13:23:40.822Z,94655.91
2022-11-04T13:26:14.177Z,94677.59
2022-11-04T13:28:44.505Z,94686.59
2022-11-04T13:31:24.142Z,94642.69
2022-11-04T13:33:57.113Z,94664.03
2022-11-04T13:36:34.643Z,94661.50
2022-11-04T13:39:10.044Z,94680.13
2022-11-04T13:41:56.818Z,94672.81
2022-11-04T13:44:29.805Z,94677.03
2022-11-04T13:47:03.908Z,94671.38
2022-11-04T13:49:34.559Z,94671.72
2022-11-04T13:52:10.480Z,94676.50
2022-11-04T13:54:43.085Z,94665.06
2022-11-04T13:57:16.098Z,94671.13
2022-11-04T14:00:06.383Z,94663.19
2022-11-04T14:02:51.172Z,94665.78
2022-11-04T14:06:08.546Z,94659.13
2022-11-04T14:08:37.363Z,94653.00
2022-11-04T14:11:12.619Z,94655.53
2022-11-04T14:13:48.443Z,94654.50
2022-11-04T14:16:45.286Z,94647.44
2022-11-04T14:19:56.746Z,94662.75
2022-11-04T14:22:35.541Z,94659.84
2022-11-04T14:25:24.945Z,94661.47
2022-11-04T14:27:55.614Z,94652.81
2022-11-04T14:30:46.988Z,94660.81
2022-11-04T14:33:26.771Z,94616.72
2022-11-04T14:35:56.652Z,94666.09
2022-11-04T14:38:31.066Z,94667.63
2022-11-04T14:41:23.863Z,94640.78
2022-11-04T14:43:55.915Z,94655.34
2022-11-04T14:46:28.116Z,94649.25
2022-11-04T14:48:58.098Z,94590.22
2022-11-04T14:51:30.403Z,94652.81
2022-11-04T14:54:09.452Z,94640.63
2022-11-04T14:56:38.835Z,94644.34
2022-11-04T14:59:08.822Z,94651.50
2022-11-04T15:01:40.092Z,94634.88
2022-11-04T15:04:28.724Z,94643.84
2022-11-04T15:06:58.664Z,94636.44
2022-11-04T15:09:31.059Z,94633.47
2022-11-04T15:12:25.179Z,94636.47
2022-11-04T15:14:53.857Z,94632.00
2022-11-04T15:17:25.075Z,94622.56
2022-11-04T15:19:56.676Z,94625.56
2022-11-04T15:22:25.456Z,94628.81
2022-11-04T15:24:55.064Z,94639.97
2022-11-04T15:27:29.986Z,94630.00
2022-11-04T15:30:00.918Z,94626.50
2022-11-04T15:32:29.074Z,94636.91
2022-11-04T15:34:59.945Z,94633.94
2022-11-04T15:37:29.666Z,94635.41
2022-11-04T15:40:00.429Z,94643.31
2022-11-04T15:42:45.165Z,94647.06
2022-11-04T15:45:32.078Z,94647.75
2022-11-04T15:48:25.801Z,94639.84
2022-11-04T15:51:10.424Z,94644.50
2022-11-04T15:53:50.048Z,94640.69
2022-11-04T15:56:26.133Z,94641.09
2022-11-04T15:58:55.866Z,94650.97
2022-11-04T16:01:24.142Z,94608.75
2022-11-04T16:03:55.174Z,94655.97
2022-11-04T16:06:38.673Z,94650.72
2022-11-04T16:09:21.294Z,94649.88
2022-11-04T16:12:27.189Z,94657.53
2022-11-04T16:14:56.439Z,94651.25
2022-11-04T16:17:26.721Z,94644.53
2022-11-04T16:19:57.339Z,94647.97
2022-11-04T16:22:30.010Z,94637.94
2022-11-04T16:24:59.589Z,94652.19
2022-11-04T16:27:32.173Z,94639.34
2022-11-04T16:30:08.205Z,94639.38
2022-11-04T16:32:42.742Z,94662.63
2022-11-04T16:35:18.372Z,94661.28
2022-11-04T16:37:46.543Z,94666.44
2022-11-04T16:40:15.927Z,94661.19
2022-11-04T16:42:46.873Z,94664.63
2022-11-04T16:45:30.290Z,94678.28
2022-11-04T16:47:58.972Z,94674.38
2022-11-04T16:50:28.117Z,94680.78
2022-11-04T16:52:56.613Z,94661.38
2022-11-04T16:55:26.393Z,94674.47
2022-11-04T16:58:01.736Z,94671.03
2022-11-04T17:00:33.392Z,94660.56
2022-11-04T17:03:02.489Z,94634.72
2022-11-04T17:05:31.826Z,94687.69
2022-11-04T17:08:04.820Z,94700.34
2022-11-04T17:10:38.291Z,94682.66
2022-11-04T17:13:09.346Z,94698.41
2022-11-04T17:15:37.946Z,94697.59
2022-11-04T17:18:06.517Z,94699.97
2022-11-04T17:20:34.918Z,94698.72
2022-11-04T17:23:03.383Z,94681.81
2022-11-04T17:25:31.959Z,94683.75
2022-11-04T17:28:00.116Z,94654.66
2022-11-04T17:30:29.803Z,94666.16
2022-11-04T17:32:58.351Z,94661.34
2022-11-04T17:35:26.505Z,94670.88
2022-11-04T17:37:56.129Z,94670.75
2022-11-04T17:40:25.033Z,94673.00
2022-11-04T17:43:12.568Z,94653.38
2022-11-04T17:45:42.907Z,94666.63
2022-11-04T17:48:14.475Z,94664.84
2022-11-04T17:50:43.472Z,94671.28
2022-11-04T17:53:11.814Z,94671.88
2022-11-04T17:55:42.062Z,94666.50
2022-11-04T17:58:12.320Z,94670.75
2022-11-04T18:00:40.888Z,94651.84
2022-11-04T18:03:12.724Z,94663.31
2022-11-04T18:05:41.558Z,94665.03
2022-11-04T18:08:09.599Z,94667.03
2022-11-04T18:10:38.351Z,94650.59
2022-11-04T18:13:08.637Z,94660.06
2022-11-04T18:15:37.419Z,94650.72
2022-11-04T18:18:05.601Z,94631.97
2022-11-04T18:20:47.391Z,94613.47
2022-11-04T18:23:15.664Z,94655.75
2022-11-04T18:25:49.607Z,94659.13
2022-11-04T18:28:19.000Z,94652.13
2022-11-04T18:30:46.951Z,94657.09
2022-11-04T18:33:15.581Z,94655.50
2022-11-04T18:35:45.536Z,94648.66
2022-11-04T18:38:13.408Z,94650.19
2022-11-04T18:40:41.473Z,94666.75
2022-11-04T18:43:10.977Z,94654.63
2022-11-04T18:45:39.669Z,94671.25
2022-11-04T18:48:08.752Z,94565.47
2022-11-04T18:50:37.190Z,94669.22
2022-11-04T18:53:07.898Z,94669.00
2022-11-04T18:55:36.734Z,94669.16
2022-11-04T18:58:05.196Z,94670.03
2022-11-04T19:00:33.591Z,94662.88
2022-11-04T19:03:04.124Z,94663.03
2022-11-04T19:05:32.208Z,94659.56
2022-11-04T19:08:00.964Z,94663.63
2022-11-04T19:10:30.507Z,94662.34
2022-11-04T19:13:15.846Z,94657.53
2022-11-04T19:15:44.288Z,94669.53
2022-11-04T19:18:12.440Z,94677.41
2022-11-04T19:20:40.446Z,94666.75
2022-11-04T19:23:08.755Z,94666.75
2022-11-04T19:25:42.533Z,94665.09
2022-11-04T19:28:34.530Z,94655.03
2022-11-04T19:31:02.435Z,94672.53
2022-11-04T19:33:31.574Z,94632.22
2022-11-04T19:36:00.095Z,94675.66
2022-11-04T19:38:28.320Z,94666.28
2022-11-04T19:41:05.847Z,94679.19
2022-11-04T19:43:33.163Z,94674.88
2022-11-04T19:46:04.938Z,94694.69
2022-11-04T19:48:37.005Z,94699.56
2022-11-04T19:51:05.152Z,94710.97
2022-11-04T19:53:33.252Z,94711.63
2022-11-04T19:56:02.767Z,94711.53
2022-11-04T19:58:30.753Z,94672.44
2022-11-04T20:01:04.806Z,94718.72
2022-11-04T20:03:32.849Z,94702.22
2022-11-04T20:06:01.629Z,94723.94
2022-11-04T20:08:29.892Z,94748.47
2022-11-04T20:11:02.763Z,94704.63
2022-11-04T20:13:49.115Z,94733.09
2022-11-04T20:16:19.559Z,94723.91
2022-11-04T20:18:50.852Z,94735.72
2022-11-04T20:21:21.120Z,94749.47
2022-11-04T20:23:50.095Z,94719.03
2022-11-04T20:26:20.996Z,94721.84
2022-11-04T20:28:50.901Z,94734.94
2022-11-04T20:31:20.953Z,94726.66
2022-11-04T20:33:50.042Z,94724.22
2022-11-04T20:36:20.671Z,94749.34
2022-11-04T20:38:48.799Z,94709.09
2022-11-04T20:41:19.989Z,94738.41
2022-11-04T20:43:50.419Z,94732.88
2022-11-04T20:46:20.479Z,94732.97
2022-11-04T20:48:50.438Z,94717.16
2022-11-04T20:51:21.892Z,94687.25
2022-11-04T20:53:56.045Z,94722.06
2022-11-04T20:56:26.326Z,94718.59
2022-11-04T20:58:59.470Z,94674.69
2022-11-04T21:01:35.688Z,94709.03
2022-11-04T21:04:07.715Z,94713.44
2022-11-04T21:06:39.085Z,94654.88
2022-11-04T21:09:09.937Z,94715.59
2022-11-04T21:11:42.416Z,94711.16
2022-11-04T21:14:14.074Z,94691.56
2022-11-04T21:16:42.143Z,94707.88
2022-11-04T21:19:13.471Z,94693.50
2022-11-04T21:21:43.280Z,94673.09
2022-11-04T21:24:14.636Z,94700.66
2022-11-04T21:26:43.929Z,94689.63
2022-11-04T21:29:15.540Z,94654.69
2022-11-04T21:31:44.374Z,94639.63
2022-11-04T21:34:13.398Z,94661.59
2022-11-04T21:36:43.204Z,94674.88
2022-11-04T21:39:13.155Z,94687.59
2022-11-04T21:41:41.254Z,94689.09
2022-11-04T21:44:11.974Z,94651.47
2022-11-04T21:46:42.714Z,94618.59
2022-11-04T21:49:14.203Z,94683.88
2022-11-04T21:51:42.862Z,94649.34
2022-11-04T21:54:12.698Z,94651.06
2022-11-04T21:56:41.149Z,94671.88
2022-11-04T21:59:17.906Z,94636.44
2022-11-04T22:01:48.283Z,94646.47
2022-11-04T22:04:16.754Z,94656.00
2022-11-04T22:06:45.617Z,94639.72
2022-11-04T22:09:14.604Z,94658.19
2022-11-04T22:11:44.197Z,94644.53
2022-11-04T22:14:14.098Z,94651.78
2022-11-04T22:16:42.361Z,94572.84
2022-11-04T22:19:14.770Z,94616.75
2022-11-04T22:21:45.033Z,94619.44
2022-11-04T22:24:15.871Z,94623.34
2022-11-04T22:26:44.291Z,94635.56
2022-11-04T22:29:12.770Z,94640.38
2022-11-04T22:31:43.339Z,94613.41
2022-11-04T22:34:17.463Z,94619.03
2022-11-04T22:36:46.088Z,94639.28
2022-11-04T22:39:16.684Z,94584.59
2022-11-04T22:41:46.697Z,94641.91
2022-11-04T22:44:15.192Z,94626.53
2022-11-04T22:46:43.698Z,94614.28
2022-11-04T22:49:15.140Z,94627.47
2022-11-04T22:51:43.189Z,94624.56
2022-11-04T22:54:12.613Z,94633.00
2022-11-04T22:56:40.917Z,94644.41
2022-11-04T22:59:09.143Z,94604.75
2022-11-04T23:01:37.945Z,94627.97
2022-11-04T23:04:06.754Z,94623.44
2022-11-04T23:06:36.927Z,94626.72
2022-11-04T23:09:06.110Z,94618.41
2022-11-04T23:11:52.218Z,94570.16
2022-11-04T23:14:40.050Z,94640.28
2022-11-04T23:17:33.889Z,94630.03
2022-11-04T23:20:02.987Z,94641.97
2022-11-04T23:22:50.599Z,94618.41
2022-11-04T23:25:19.287Z,94611.66
2022-11-04T23:28:06.738Z,94630.09
2022-11-04T23:30:37.196Z,94629.44
2022-11-04T23:33:07.346Z,94642.16
2022-11-04T23:35:55.605Z,94656.94
2022-11-04T23:38:26.167Z,94645.06
2022-11-04T23:41:15.654Z,94658.28
2022-11-04T23:43:44.379Z,94664.25
2022-11-04T23:46:29.828Z,94664.59
2022-11-04T23:49:15.552Z,94655.06
2022-11-04T23:52:01.364Z,94648.22
2022-11-04T23:54:48.836Z,94666.13
2022-11-04T23:57:36.219Z,94656.03
